Time,TemperatureF,DewpointF,PressureIn,WindDirection,WindDirectionDegrees,WindSpeedMPH,WindSpeedGustMPH,Humidity,HourlyPrecipIn,Conditions,Clouds,dailyrainin,SoftwareType,DateUTC
2013-01-23 00:00:00,39.3,37.2,30.30,NNW,339,0.0,0.0,92,0.00,,,0.00,Wunderground v.1.15,2013-01-23 05:00:00,
2013-01-23 00:05:00,39.1,37.0,30.31,NNW,339,0.0,0.0,92,0.00,,,0.00,Wunderground v.1.15,2013-01-23 05:05:00,
2013-01-23 00:10:00,39.0,36.9,30.31,NNW,339,0.0,0.0,92,0.00,,,0.00,Wunderground v.1.15,2013-01-23 05:10:00,
2013-01-23 00:15:00,38.9,36.8,30.31,NNW,338,0.0,0.0,92,0.00,,,0.00,Wunderground v.1.15,2013-01-23 05:15:00,
2013-01-23 00:20:00,39.3,37.7,30.30,NNW,339,0.0,0.0,94,0.00,,,0.00,Wunderground v.1.15,2013-01-23 05:20:00,
2013-01-23 00:25:00,39.8,38.2,30.31,NNW,339,0.0,0.0,94,0.00,,,0.00,Wunderground v.1.15,2013-01-23 05:25:00,
2013-01-23 00:35:00,39.1,37.0,30.30,NNW,339,0.0,0.0,92,0.00,,,0.00,Wunderground v.1.15,2013-01-23 05:35:00,
2013-01-23 00:40:00,39.0,36.9,30.31,NNW,339,0.0,0.0,92,0.00,,,0.00,Wunderground v.1.15,2013-01-23 05:40:00,
2013-01-23 00:45:00,38.9,37.0,30.31,NNW,339,0.0,0.0,93,0.00,,,0.00,Wunderground v.1.15,2013-01-23 05:45:00,
2013-01-23 00:50:00,38.8,36.7,30.31,NNW,339,0.0,0.0,92,0.00,,,0.00,Wunderground v.1.15,2013-01-23 05:50:00,
2013-01-23 00:55:00,38.7,36.6,30.31,NNW,339,0.0,0.0,92,0.00,,,0.00,Wunderground v.1.15,2013-01-23 05:55:00,
2013-01-23 01:05:00,38.7,36.6,30.31,NNW,339,0.0,0.0,92,0.00,,,0.00,Wunderground v.1.15,2013-01-23 06:05:00,
2013-01-23 01:10:00,38.8,36.9,30.31,NNW,338,0.0,0.0,93,0.00,,,0.00,Wunderground v.1.15,2013-01-23 06:10:00,
2013-01-23 01:15:00,39.1,37.5,30.31,NNW,339,0.0,0.0,94,0.00,,,0.00,Wunderground v.1.15,2013-01-23 06:15:00,
2013-01-23 01:20:00,39.2,37.6,30.31,NNW,339,0.0,0.0,94,0.00,,,0.00,Wunderground v.1.15,2013-01-23 06:20:00,
2013-01-23 01:25:00,39.5,37.9,30.31,NNW,337,0.0,0.0,94,0.00,,,0.00,Wunderground v.1.15,2013-01-23 06:25:00,
2013-01-23 01:30:00,40.1,38.8,30.31,NNW,333,0.0,0.0,95,0.00,,,0.00,Wunderground v.1.15,2013-01-23 06:30:00,
2013-01-23 01:39:00,40.5,38.9,30.31,West,270,0.0,0.0,94,0.00,,,0.00,Wunderground v.1.15,2013-01-23 06:39:00,
2013-01-23 01:44:00,40.3,38.4,30.31,West,271,0.0,0.0,93,0.00,,,0.00,Wunderground v.1.15,2013-01-23 06:44:00,
2013-01-23 01:49:00,39.8,37.7,30.31,West,271,0.0,0.0,92,0.00,,,0.00,Wunderground v.1.15,2013-01-23 06:49:00,
2013-01-23 01:54:00,39.3,37.2,30.31,West,270,0.0,0.0,92,0.00,,,0.00,Wunderground v.1.15,2013-01-23 06:54:00,
2013-01-23 01:59:00,38.7,36.6,30.31,West,271,0.0,0.0,92,0.00,,,0.00,Wunderground v.1.15,2013-01-23 06:59:00,
2013-01-23 02:05:00,38.6,36.8,30.31,West,271,0.0,0.0,93,0.00,,,0.00,Wunderground v.1.15,2013-01-23 07:05:00,
2013-01-23 02:10:00,38.6,36.5,30.31,West,270,0.0,0.0,92,0.00,,,0.00,Wunderground v.1.15,2013-01-23 07:10:00,
2013-01-23 02:15:00,38.2,36.4,30.31,West,271,0.0,0.0,93,0.00,,,0.00,Wunderground v.1.15,2013-01-23 07:15:00,
2013-01-23 02:20:00,38.7,37.1,30.31,West,271,0.0,0.0,94,0.00,,,0.00,Wunderground v.1.15,2013-01-23 07:20:00,
2013-01-23 02:25:00,38.7,36.9,30.31,West,271,0.0,0.0,93,0.00,,,0.00,Wunderground v.1.15,2013-01-23 07:25:00,
2013-01-23 02:30:00,38.4,36.3,30.31,West,270,0.0,0.0,92,0.00,,,0.00,Wunderground v.1.15,2013-01-23 07:30:00,
2013-01-23 02:40:00,36.9,34.5,30.31,West,271,0.0,0.0,91,0.00,,,0.00,Wunderground v.1.15,2013-01-23 07:40:00,
2013-01-23 02:45:00,36.2,33.5,30.31,West,271,0.0,0.0,90,0.00,,,0.00,Wunderground v.1.15,2013-01-23 07:45:00,
2013-01-23 02:50:00,35.7,33.3,30.31,West,271,0.0,0.0,91,0.00,,,0.00,Wunderground v.1.15,2013-01-23 07:50:00,
2013-01-23 02:55:00,36.9,35.6,30.31,West,271,0.0,0.0,95,0.00,,,0.00,Wunderground v.1.15,2013-01-23 07:55:00,
2013-01-23 03:00:00,38.5,37.2,30.31,NNW,334,0.0,0.0,95,0.00,,,0.00,Wunderground v.1.15,2013-01-23 08:00:00,
2013-01-23 03:05:00,39.8,38.2,30.31,NW,316,0.0,0.0,94,0.00,,,0.00,Wunderground v.1.15,2013-01-23 08:05:00,
2013-01-23 03:15:00,41.3,38.3,30.32,NW,325,0.0,0.0,89,0.00,,,0.00,Wunderground v.1.15,2013-01-23 08:15:00,
2013-01-23 03:20:00,41.3,38.0,30.31,NW,325,0.0,0.0,88,0.00,,,0.00,Wunderground v.1.15,2013-01-23 08:20:00,
2013-01-23 03:25:00,41.4,38.1,30.31,NW,325,0.0,0.0,88,0.00,,,0.00,Wunderground v.1.15,2013-01-23 08:25:00,
2013-01-23 03:30:00,41.1,37.5,30.32,NW,324,0.0,0.0,87,0.00,,,0.00,Wunderground v.1.15,2013-01-23 08:30:00,
2013-01-23 03:35:00,40.5,36.6,30.32,NW,324,0.0,0.0,86,0.00,,,0.00,Wunderground v.1.15,2013-01-23 08:35:00,
2013-01-23 03:45:00,38.9,35.1,30.32,NW,325,0.0,0.0,86,0.00,,,0.00,Wunderground v.1.15,2013-01-23 08:45:00,
2013-01-23 03:50:00,38.0,34.2,30.32,NW,324,0.0,0.0,86,0.00,,,0.00,Wunderground v.1.15,2013-01-23 08:50:00,
2013-01-23 03:55:00,37.5,34.0,30.33,NW,324,0.0,0.0,87,0.00,,,0.00,Wunderground v.1.15,2013-01-23 08:55:00,
2013-01-23 04:00:00,37.1,33.9,30.33,North,8,0.0,0.0,88,0.00,,,0.00,Wunderground v.1.15,2013-01-23 09:00:00,
2013-01-23 04:05:00,37.6,34.7,30.33,NW,326,0.0,1.0,89,0.00,,,0.00,Wunderground v.1.15,2013-01-23 09:05:00,
2013-01-23 04:10:00,38.3,35.1,30.33,NNE,15,0.0,1.0,88,0.00,,,0.00,Wunderground v.1.15,2013-01-23 09:10:00,
2013-01-23 04:20:00,39.6,34.6,30.33,NNW,340,0.0,1.0,82,0.00,,,0.00,Wunderground v.1.15,2013-01-23 09:20:00,
2013-01-23 04:25:00,40.1,34.4,30.33,North,354,0.0,1.0,80,0.00,,,0.00,Wunderground v.1.15,2013-01-23 09:25:00,
2013-01-23 04:30:00,41.0,34.7,30.33,NNE,27,0.0,0.0,78,0.00,,,0.00,Wunderground v.1.15,2013-01-23 09:30:00,
2013-01-23 04:35:00,41.6,34.3,30.33,NNE,15,0.0,0.0,75,0.00,,,0.00,Wunderground v.1.15,2013-01-23 09:35:00,
2013-01-23 04:40:00,41.9,34.2,30.33,NNW,348,0.0,1.0,74,0.00,,,0.00,Wunderground v.1.15,2013-01-23 09:40:00,
2013-01-23 04:45:00,42.3,34.3,30.33,North,8,0.0,1.0,73,0.00,,,0.00,Wunderground v.1.15,2013-01-23 09:45:00,
2013-01-23 04:50:00,42.6,33.9,30.33,NNW,328,0.0,0.0,71,0.00,,,0.00,Wunderground v.1.15,2013-01-23 09:50:00,
2013-01-23 04:55:00,42.8,33.7,30.33,NNE,16,1.0,1.0,70,0.00,,,0.00,Wunderground v.1.15,2013-01-23 09:55:00,
2013-01-23 05:00:00,42.9,34.5,30.33,NNW,343,0.0,0.0,72,0.00,,,0.00,Wunderground v.1.15,2013-01-23 10:00:00,
2013-01-23 05:05:00,43.0,34.2,30.33,NNW,348,0.0,1.0,71,0.00,,,0.00,Wunderground v.1.15,2013-01-23 10:05:00,
2013-01-23 05:10:00,43.1,34.0,30.33,North,1,0.0,1.0,70,0.00,,,0.00,Wunderground v.1.15,2013-01-23 10:10:00,
2013-01-23 05:15:00,43.0,33.9,30.33,North,1,0.0,1.0,70,0.00,,,0.00,Wunderground v.1.15,2013-01-23 10:15:00,
2013-01-23 05:25:00,42.8,33.7,30.33,NW,316,0.0,1.0,70,0.00,,,0.00,Wunderground v.1.15,2013-01-23 10:25:00,
2013-01-23 05:30:00,42.7,33.9,30.33,NW,316,0.0,0.0,71,0.00,,,0.00,Wunderground v.1.15,2013-01-23 10:30:00,
2013-01-23 05:35:00,42.7,33.9,30.34,NNW,327,0.0,0.0,71,0.00,,,0.00,Wunderground v.1.15,2013-01-23 10:35:00,
2013-01-23 05:40:00,42.7,33.9,30.34,NW,317,0.0,0.0,71,0.00,,,0.00,Wunderground v.1.15,2013-01-23 10:40:00,
2013-01-23 05:45:00,42.7,33.9,30.34,NNW,333,0.0,0.0,71,0.00,,,0.00,Wunderground v.1.15,2013-01-23 10:45:00,
2013-01-23 05:55:00,42.5,34.1,30.34,NW,319,0.0,0.0,72,0.00,,,0.00,Wunderground v.1.15,2013-01-23 10:55:00,
2013-01-23 06:00:00,42.3,34.3,30.34,NNW,339,0.0,0.0,73,0.00,,,0.00,Wunderground v.1.15,2013-01-23 11:00:00,
2013-01-23 06:05:00,42.0,34.0,30.35,NNW,339,0.0,3.0,73,0.00,,,0.00,Wunderground v.1.15,2013-01-23 11:05:00,
2013-01-23 06:10:00,41.7,34.0,30.35,NNW,336,0.0,3.0,74,0.00,,,0.00,Wunderground v.1.15,2013-01-23 11:10:00,
2013-01-23 06:19:00,40.8,33.5,30.35,NNW,335,0.0,3.0,75,0.00,,,0.00,Wunderground v.1.15,2013-01-23 11:19:00,
2013-01-23 06:25:00,39.9,32.3,30.35,NNW,335,0.0,3.0,74,0.00,,,0.00,Wunderground v.1.15,2013-01-23 11:25:00,
2013-01-23 06:30:00,38.8,31.6,30.35,NNW,336,0.0,0.0,75,0.00,,,0.00,Wunderground v.1.15,2013-01-23 11:30:00,
2013-01-23 06:35:00,37.9,31.3,30.35,NNW,335,0.0,0.0,77,0.00,,,0.00,Wunderground v.1.15,2013-01-23 11:35:00,
2013-01-23 06:40:00,36.9,31.0,30.35,NNW,335,0.0,0.0,79,0.00,,,0.00,Wunderground v.1.15,2013-01-23 11:40:00,
2013-01-23 06:45:00,36.3,31.3,30.35,NNW,336,0.0,0.0,82,0.00,,,0.00,Wunderground v.1.15,2013-01-23 11:45:00,
2013-01-23 06:50:00,35.4,30.1,30.35,NNW,336,0.0,0.0,81,0.00,,,0.00,Wunderground v.1.15,2013-01-23 11:50:00,
2013-01-23 07:00:00,33.6,28.7,30.35,NNW,336,0.0,0.0,82,0.00,,,0.00,Wunderground v.1.15,2013-01-23 12:00:00,
2013-01-23 07:05:00,32.8,28.2,30.35,NNW,335,0.0,2.0,83,0.00,,,0.00,Wunderground v.1.15,2013-01-23 12:05:00,
2013-01-23 07:10:00,32.1,27.5,30.36,NNW,335,0.0,2.0,83,0.00,,,0.00,Wunderground v.1.15,2013-01-23 12:10:00,
2013-01-23 07:15:00,31.6,27.6,30.36,NNW,336,0.0,2.0,85,0.00,,,0.00,Wunderground v.1.15,2013-01-23 12:15:00,
2013-01-23 07:20:00,31.4,27.7,30.36,NNW,335,0.0,2.0,86,0.00,,,0.00,Wunderground v.1.15,2013-01-23 12:20:00,
2013-01-23 07:25:00,31.0,27.3,30.36,NNW,336,0.0,2.0,86,0.00,,,0.00,Wunderground v.1.15,2013-01-23 12:25:00,
2013-01-23 07:35:00,30.6,27.5,30.36,NNW,336,0.0,0.0,88,0.00,,,0.00,Wunderground v.1.15,2013-01-23 12:35:00,
2013-01-23 07:40:00,30.5,27.4,30.36,NNW,336,0.0,0.0,88,0.00,,,0.00,Wunderground v.1.15,2013-01-23 12:40:00,
2013-01-23 07:45:00,31.0,28.4,30.36,NNW,335,0.0,0.0,90,0.00,,,0.00,Wunderground v.1.15,2013-01-23 12:45:00,
2013-01-23 07:50:00,32.7,30.4,30.37,NNW,336,0.0,0.0,91,0.00,,,0.00,Wunderground v.1.15,2013-01-23 12:50:00,
2013-01-23 07:55:00,35.1,33.0,30.37,NNW,336,0.0,0.0,92,0.00,,,0.00,Wunderground v.1.15,2013-01-23 12:55:00,
2013-01-23 08:05:00,41.1,39.0,30.37,NNW,335,0.0,0.0,92,0.00,,,0.00,Wunderground v.1.15,2013-01-23 13:05:00,
2013-01-23 08:10:00,41.3,37.4,30.37,NNW,336,0.0,0.0,86,0.00,,,0.00,Wunderground v.1.15,2013-01-23 13:10:00,
2013-01-23 08:15:00,41.6,37.4,30.37,NNW,335,0.0,0.0,85,0.00,,,0.00,Wunderground v.1.15,2013-01-23 13:15:00,
2013-01-23 08:20:00,42.3,37.5,30.37,NNW,336,0.0,0.0,83,0.00,,,0.00,Wunderground v.1.15,2013-01-23 13:20:00,
2013-01-23 08:25:00,43.3,38.2,30.38,NNW,336,0.0,0.0,82,0.00,,,0.00,Wunderground v.1.15,2013-01-23 13:25:00,
2013-01-23 08:30:00,44.4,38.9,30.38,NNW,335,0.0,0.0,81,0.00,,,0.00,Wunderground v.1.15,2013-01-23 13:30:00,
2013-01-23 08:40:00,46.6,40.4,30.38,NNW,332,0.0,0.0,79,0.00,,,0.00,Wunderground v.1.15,2013-01-23 13:40:00,
2013-01-23 08:45:00,47.9,42.0,30.38,NNW,332,0.0,0.0,80,0.00,,,0.00,Wunderground v.1.15,2013-01-23 13:45:00,
2013-01-23 08:50:00,49.6,42.7,30.38,NE,36,0.0,2.0,77,0.00,,,0.00,Wunderground v.1.15,2013-01-23 13:50:00,
2013-01-23 08:55:00,50.4,42.4,30.38,NNE,15,0.0,2.0,74,0.00,,,0.00,Wunderground v.1.15,2013-01-23 13:55:00,
2013-01-23 09:00:00,51.0,41.9,30.39,NE,43,1.0,2.0,71,0.00,,,0.00,Wunderground v.1.15,2013-01-23 14:00:00,
2013-01-23 09:10:00,51.9,40.1,30.39,NNE,22,3.0,3.0,64,0.00,,,0.00,Wunderground v.1.15,2013-01-23 14:10:00,
2013-01-23 09:15:00,52.6,39.9,30.39,ENE,59,3.0,3.0,62,0.00,,,0.00,Wunderground v.1.15,2013-01-23 14:15:00,
2013-01-23 09:20:00,53.3,38.4,30.39,NE,38,2.0,2.0,57,0.00,,,0.00,Wunderground v.1.15,2013-01-23 14:20:00,
2013-01-23 09:25:00,53.7,37.9,30.39,NE,44,3.0,5.0,55,0.00,,,0.00,Wunderground v.1.15,2013-01-23 14:25:00,
2013-01-23 09:30:00,54.3,38.0,30.39,North,358,3.0,4.0,54,0.00,,,0.00,Wunderground v.1.15,2013-01-23 14:30:00,
2013-01-23 09:35:00,54.7,37.4,30.39,North,5,3.0,4.0,52,0.00,,,0.00,Wunderground v.1.15,2013-01-23 14:35:00,
2013-01-23 09:44:00,56.0,38.1,30.39,NNE,32,2.0,3.0,51,0.00,,,0.00,Wunderground v.1.15,2013-01-23 14:44:00,
2013-01-23 09:49:00,56.6,38.2,30.39,NNE,15,2.0,2.0,50,0.00,,,0.00,Wunderground v.1.15,2013-01-23 14:49:00,
2013-01-23 09:54:00,57.1,38.1,30.39,NE,54,2.0,3.0,49,0.00,,,0.00,Wunderground v.1.15,2013-01-23 14:54:00,
2013-01-23 09:59:00,57.7,36.5,30.39,North,359,2.0,2.0,45,0.00,,,0.00,Wunderground v.1.15,2013-01-23 14:59:00,
2013-01-23 10:04:00,58.4,35.4,30.39,NNE,15,2.0,5.0,42,0.00,,,0.00,Wunderground v.1.15,2013-01-23 15:04:00,
2013-01-23 10:14:00,59.1,33.5,30.39,ENE,62,4.0,5.0,38,0.00,,,0.00,Wunderground v.1.15,2013-01-23 15:14:00,
2013-01-23 10:19:00,59.3,33.0,30.39,ENE,60,4.0,4.0,37,0.00,,,0.00,Wunderground v.1.15,2013-01-23 15:19:00,
2013-01-23 10:24:00,59.7,34.7,30.40,NE,39,4.0,5.0,39,0.00,,,0.00,Wunderground v.1.15,2013-01-23 15:24:00,
2013-01-23 10:29:00,60.3,34.6,30.39,NNW,327,4.0,4.0,38,0.00,,,0.00,Wunderground v.1.15,2013-01-23 15:29:00,
2013-01-23 10:34:00,60.7,32.9,30.39,NNE,17,4.0,4.0,35,0.00,,,0.00,Wunderground v.1.15,2013-01-23 15:34:00,
2013-01-23 10:39:00,60.9,33.0,30.39,NNW,329,4.0,7.0,35,0.00,,,0.00,Wunderground v.1.15,2013-01-23 15:39:00,
2013-01-23 10:45:00,61.1,32.5,30.39,NE,51,4.0,7.0,34,0.00,,,0.00,Wunderground v.1.15,2013-01-23 15:45:00,
2013-01-23 10:50:00,61.6,34.4,30.39,NNW,333,4.0,5.0,36,0.00,,,0.00,Wunderground v.1.15,2013-01-23 15:50:00,
2013-01-23 10:55:00,61.8,32.4,30.40,NNE,23,4.0,6.0,33,0.00,,,0.00,Wunderground v.1.15,2013-01-23 15:55:00,
2013-01-23 11:00:00,61.4,32.8,30.39,NE,42,5.0,5.0,34,0.00,,,0.00,Wunderground v.1.15,2013-01-23 16:00:00,
2013-01-23 11:05:00,62.0,31.8,30.39,NNE,18,4.0,6.0,32,0.00,,,0.00,Wunderground v.1.15,2013-01-23 16:05:00,
2013-01-23 11:10:00,62.0,32.5,30.39,North,359,4.0,4.0,33,0.00,,,0.00,Wunderground v.1.15,2013-01-23 16:10:00,
2013-01-23 11:20:00,62.2,30.4,30.39,East,88,5.0,5.0,30,0.00,,,0.00,Wunderground v.1.15,2013-01-23 16:20:00,
2013-01-23 11:25:00,62.3,32.0,30.39,NE,48,5.0,7.0,32,0.00,,,0.00,Wunderground v.1.15,2013-01-23 16:25:00,
2013-01-23 11:30:00,62.4,32.9,30.39,NW,309,5.0,5.0,33,0.00,,,0.00,Wunderground v.1.15,2013-01-23 16:30:00,
2013-01-23 11:35:00,62.8,31.7,30.39,NE,36,4.0,5.0,31,0.00,,,0.00,Wunderground v.1.15,2013-01-23 16:35:00,
2013-01-23 11:40:00,63.2,33.6,30.38,NNE,23,4.0,4.0,33,0.00,,,0.00,Wunderground v.1.15,2013-01-23 16:40:00,
2013-01-23 11:50:00,63.4,36.0,30.38,North,356,4.0,4.0,36,0.00,,,0.00,Wunderground v.1.15,2013-01-23 16:50:00,
2013-01-23 11:55:00,63.8,36.3,30.38,NNW,334,3.0,4.0,36,0.00,,,0.00,Wunderground v.1.15,2013-01-23 16:55:00,
2013-01-23 12:00:00,63.5,36.0,30.38,NNE,32,3.0,6.0,36,0.00,,,0.00,Wunderground v.1.15,2013-01-23 17:00:00,
2013-01-23 12:05:00,63.7,35.5,30.38,NW,323,3.0,10.0,35,0.00,,,0.00,Wunderground v.1.15,2013-01-23 17:05:00,
2013-01-23 12:10:00,63.9,35.7,30.37,NNW,347,3.0,10.0,35,0.00,,,0.00,Wunderground v.1.15,2013-01-23 17:10:00,
2013-01-23 12:15:00,64.0,35.8,30.37,NNW,332,3.0,10.0,35,0.00,,,0.00,Wunderground v.1.15,2013-01-23 17:15:00,
2013-01-23 12:25:00,64.0,35.0,30.36,North,11,4.0,10.0,34,0.00,,,0.00,Wunderground v.1.15,2013-01-23 17:25:00,
2013-01-23 12:30:00,63.9,34.2,30.36,NNW,332,4.0,4.0,33,0.00,,,0.00,Wunderground v.1.15,2013-01-23 17:30:00,
2013-01-23 12:35:00,64.1,32.8,30.36,NE,39,4.0,4.0,31,0.00,,,0.00,Wunderground v.1.15,2013-01-23 17:35:00,
2013-01-23 12:40:00,64.2,35.2,30.36,NNE,22,4.0,4.0,34,0.00,,,0.00,Wunderground v.1.15,2013-01-23 17:40:00,
2013-01-23 12:45:00,64.1,32.8,30.36,NNE,32,3.0,4.0,31,0.00,,,0.00,Wunderground v.1.15,2013-01-23 17:45:00,
2013-01-23 12:55:00,64.1,33.6,30.35,NW,322,3.0,7.0,32,0.00,,,0.00,Wunderground v.1.15,2013-01-23 17:55:00,
2013-01-23 13:00:00,64.5,34.7,30.35,NNW,333,3.0,3.0,33,0.00,,,0.00,Wunderground v.1.15,2013-01-23 18:00:00,
2013-01-23 13:05:00,64.7,34.1,30.34,NE,34,3.0,5.0,32,0.00,,,0.00,Wunderground v.1.15,2013-01-23 18:05:00,
2013-01-23 13:10:00,64.7,32.5,30.34,NNW,329,3.0,10.0,30,0.00,,,0.00,Wunderground v.1.15,2013-01-23 18:10:00,
2013-01-23 13:15:00,64.4,33.1,30.34,WSW,248,3.0,10.0,31,0.00,,,0.00,Wunderground v.1.15,2013-01-23 18:15:00,
2013-01-23 13:20:00,65.1,33.7,30.33,NNE,24,3.0,3.0,31,0.00,,,0.00,Wunderground v.1.15,2013-01-23 18:20:00,
2013-01-23 13:29:00,65.5,32.4,30.33,North,360,2.0,2.0,29,0.00,,,0.00,Wunderground v.1.15,2013-01-23 18:29:00,
2013-01-23 13:34:00,65.4,32.3,30.33,North,354,2.0,2.0,29,0.00,,,0.00,Wunderground v.1.15,2013-01-23 18:34:00,
2013-01-23 13:39:00,65.2,31.2,30.32,NNW,335,2.0,2.0,28,0.00,,,0.00,Wunderground v.1.15,2013-01-23 18:39:00,
2013-01-23 13:44:00,65.8,33.5,30.32,NNW,343,2.0,2.0,30,0.00,,,0.00,Wunderground v.1.15,2013-01-23 18:44:00,
2013-01-23 13:49:00,65.8,33.5,30.32,NE,34,3.0,3.0,30,0.00,,,0.00,Wunderground v.1.15,2013-01-23 18:49:00,
2013-01-23 13:59:00,65.9,33.6,30.32,NNW,337,3.0,4.0,30,0.00,,,0.00,Wunderground v.1.15,2013-01-23 18:59:00,
2013-01-23 14:04:00,65.5,32.4,30.32,SW,232,3.0,9.0,29,0.00,,,0.00,Wunderground v.1.15,2013-01-23 19:04:00,
2013-01-23 14:09:00,65.6,33.3,30.31,NE,46,2.0,9.0,30,0.00,,,0.00,Wunderground v.1.15,2013-01-23 19:09:00,
2013-01-23 14:14:00,66.0,32.8,30.31,NNE,26,3.0,9.0,29,0.00,,,0.00,Wunderground v.1.15,2013-01-23 19:14:00,
2013-01-23 14:19:00,65.8,32.6,30.31,NW,322,3.0,9.0,29,0.00,,,0.00,Wunderground v.1.15,2013-01-23 19:19:00,
2013-01-23 14:24:00,65.9,32.7,30.31,NW,316,3.0,9.0,29,0.00,,,0.00,Wunderground v.1.15,2013-01-23 19:24:00,
2013-01-23 16:14:00,65.9,31.8,30.31,NNW,332,2.0,7.0,28,0.00,,,0.00,Wunderground v.1.15,2013-01-23 21:14:00,
2013-01-23 16:20:00,66.3,32.2,30.31,NW,325,1.0,1.0,28,0.00,,,0.00,Wunderground v.1.15,2013-01-23 21:20:00,
2013-01-23 16:25:00,67.5,32.3,30.31,WSW,253,0.0,1.0,27,0.00,,,0.00,Wunderground v.1.15,2013-01-23 21:25:00,
2013-01-23 16:30:00,66.9,32.7,30.31,North,4,1.0,1.0,28,0.00,,,0.00,Wunderground v.1.15,2013-01-23 21:30:00,
2013-01-23 16:40:00,66.2,31.2,30.31,NNE,31,0.0,2.0,27,0.00,,,0.00,Wunderground v.1.15,2013-01-23 21:40:00,
2013-01-23 16:45:00,65.7,30.8,30.31,NE,40,1.0,2.0,27,0.00,,,0.00,Wunderground v.1.15,2013-01-23 21:45:00,
2013-01-23 16:50:00,65.5,31.5,30.31,NW,325,2.0,3.0,28,0.00,,,0.00,Wunderground v.1.15,2013-01-23 21:50:00,
2013-01-23 16:55:00,65.2,31.2,30.31,NNE,25,2.0,3.0,28,0.00,,,0.00,Wunderground v.1.15,2013-01-23 21:55:00,
2013-01-23 17:00:00,65.0,31.9,30.31,NNW,332,1.0,1.0,29,0.00,,,0.00,Wunderground v.1.15,2013-01-23 22:00:00,
2013-01-23 17:10:00,64.3,32.2,30.31,North,354,1.0,1.0,30,0.00,,,0.00,Wunderground v.1.15,2013-01-23 22:10:00,
2013-01-23 17:15:00,63.8,33.4,30.31,NNW,348,1.0,6.0,32,0.00,,,0.00,Wunderground v.1.15,2013-01-23 22:15:00,
2013-01-23 17:20:00,63.2,33.6,30.31,NNW,348,0.0,6.0,33,0.00,,,0.00,Wunderground v.1.15,2013-01-23 22:20:00,
2013-01-23 17:25:00,62.7,32.4,30.32,North,349,0.0,6.0,32,0.00,,,0.00,Wunderground v.1.15,2013-01-23 22:25:00,
2013-01-23 17:30:00,62.1,33.4,30.32,NNW,348,0.0,0.0,34,0.00,,,0.00,Wunderground v.1.15,2013-01-23 22:30:00,
2013-01-23 17:35:00,61.4,33.5,30.32,NNW,348,0.0,0.0,35,0.00,,,0.00,Wunderground v.1.15,2013-01-23 22:35:00,
2013-01-23 17:45:00,59.8,34.1,30.32,NNW,348,0.0,0.0,38,0.00,,,0.00,Wunderground v.1.15,2013-01-23 22:45:00,
2013-01-23 17:50:00,58.7,34.4,30.32,NNW,348,0.0,0.0,40,0.00,,,0.00,Wunderground v.1.15,2013-01-23 22:50:00,
2013-01-23 17:55:00,57.6,34.1,30.32,NNW,348,0.0,0.0,41,0.00,,,0.00,Wunderground v.1.15,2013-01-23 22:55:00,
2013-01-23 18:00:00,56.1,32.7,30.32,NNW,348,0.0,0.0,41,0.00,,,0.00,Wunderground v.1.15,2013-01-23 23:00:00,
2013-01-23 18:05:00,54.7,32.6,30.32,NNW,348,0.0,5.0,43,0.00,,,0.00,Wunderground v.1.15,2013-01-23 23:05:00,
2013-01-23 18:15:00,51.8,32.2,30.32,NNW,348,0.0,5.0,47,0.00,,,0.00,Wunderground v.1.15,2013-01-23 23:15:00,
2013-01-23 18:20:00,50.2,31.8,30.32,NNW,348,0.0,5.0,49,0.00,,,0.00,Wunderground v.1.15,2013-01-23 23:20:00,
2013-01-23 18:25:00,48.9,33.0,30.32,North,349,0.0,5.0,54,0.00,,,0.00,Wunderground v.1.15,2013-01-23 23:25:00,
2013-01-23 18:30:00,48.1,34.4,30.32,NNW,348,0.0,0.0,59,0.00,,,0.00,Wunderground v.1.15,2013-01-23 23:30:00,
2013-01-23 18:35:00,47.3,34.5,30.32,North,349,0.0,0.0,61,0.00,,,0.00,Wunderground v.1.15,2013-01-23 23:35:00,
2013-01-23 18:40:00,47.2,36.0,30.32,NNW,329,0.0,0.0,65,0.00,,,0.00,Wunderground v.1.15,2013-01-23 23:40:00,
2013-01-23 18:50:00,47.0,36.2,30.33,NNW,329,0.0,0.0,66,0.00,,,0.00,Wunderground v.1.15,2013-01-23 23:50:00,
2013-01-23 18:55:00,46.6,35.1,30.33,NNW,329,0.0,0.0,64,0.00,,,0.00,Wunderground v.1.15,2013-01-23 23:55:00,
2013-01-23 19:00:00,45.9,34.4,30.33,NNW,329,0.0,0.0,64,0.00,,,0.00,Wunderground v.1.15,2013-01-24 00:00:00,
2013-01-23 19:05:00,45.3,34.6,30.33,NNW,328,0.0,0.0,66,0.00,,,0.00,Wunderground v.1.15,2013-01-24 00:05:00,
2013-01-23 19:10:00,44.6,33.9,30.33,NNW,328,0.0,0.0,66,0.00,,,0.00,Wunderground v.1.15,2013-01-24 00:10:00,
2013-01-23 19:20:00,42.8,32.2,30.33,NNW,329,0.0,0.0,66,0.00,,,0.00,Wunderground v.1.15,2013-01-24 00:20:00,
2013-01-23 19:25:00,42.5,33.0,30.33,NNW,329,0.0,0.0,69,0.00,,,0.00,Wunderground v.1.15,2013-01-24 00:25:00,
2013-01-23 19:30:00,42.1,32.7,30.33,NNW,328,0.0,0.0,69,0.00,,,0.00,Wunderground v.1.15,2013-01-24 00:30:00,
2013-01-23 19:35:00,41.7,32.6,30.33,NNW,328,0.0,0.0,70,0.00,,,0.00,Wunderground v.1.15,2013-01-24 00:35:00,
2013-01-23 19:40:00,41.2,32.2,30.33,NNW,329,0.0,0.0,70,0.00,,,0.00,Wunderground v.1.15,2013-01-24 00:40:00,
2013-01-23 19:45:00,41.3,33.0,30.33,NNW,329,0.0,0.0,72,0.00,,,0.00,Wunderground v.1.15,2013-01-24 00:45:00,
2013-01-23 19:50:00,40.9,32.6,30.33,NNW,329,0.0,0.0,72,0.00,,,0.00,Wunderground v.1.15,2013-01-24 00:50:00,
2013-01-23 19:55:00,40.6,32.3,30.33,NNW,329,0.0,0.0,72,0.00,,,0.00,Wunderground v.1.15,2013-01-24 00:55:00,
2013-01-23 20:00:00,40.1,31.8,30.33,NNW,328,0.0,0.0,72,0.00,,,0.00,Wunderground v.1.15,2013-01-24 01:00:00,
2013-01-23 20:05:00,39.7,31.4,30.33,NNW,329,0.0,1.0,72,0.00,,,0.00,Wunderground v.1.15,2013-01-24 01:05:00,
2013-01-23 20:10:00,39.4,31.5,30.33,NNW,328,0.0,1.0,73,0.00,,,0.00,Wunderground v.1.15,2013-01-24 01:10:00,
2013-01-23 20:20:00,39.2,32.6,30.33,NNW,328,0.0,1.0,77,0.00,,,0.00,Wunderground v.1.15,2013-01-24 01:20:00,
2013-01-23 20:25:00,39.2,33.2,30.33,NNW,329,0.0,1.0,79,0.00,,,0.00,Wunderground v.1.15,2013-01-24 01:25:00,
2013-01-23 20:30:00,40.0,34.6,30.32,NNW,328,0.0,0.0,81,0.00,,,0.00,Wunderground v.1.15,2013-01-24 01:30:00,
2013-01-23 20:35:00,39.8,33.5,30.32,NNW,329,0.0,0.0,78,0.00,,,0.00,Wunderground v.1.15,2013-01-24 01:35:00,
2013-01-23 20:40:00,39.3,32.7,30.32,NNW,329,0.0,0.0,77,0.00,,,0.00,Wunderground v.1.15,2013-01-24 01:40:00,
2013-01-23 20:45:00,38.9,32.3,30.32,NNW,328,0.0,0.0,77,0.00,,,0.00,Wunderground v.1.15,2013-01-24 01:45:00,
2013-01-23 20:55:00,38.8,33.8,30.32,NNW,329,0.0,0.0,82,0.00,,,0.00,Wunderground v.1.15,2013-01-24 01:55:00,
2013-01-23 21:00:00,39.2,34.5,30.32,NNW,328,0.0,0.0,83,0.00,,,0.00,Wunderground v.1.15,2013-01-24 02:00:00,
2013-01-23 21:05:00,39.2,33.9,30.32,NNW,329,0.0,0.0,81,0.00,,,0.00,Wunderground v.1.15,2013-01-24 02:05:00,
2013-01-23 21:10:00,38.9,33.6,30.33,NNW,329,0.0,0.0,81,0.00,,,0.00,Wunderground v.1.15,2013-01-24 02:10:00,
2013-01-23 21:15:00,38.5,33.2,30.33,NNW,328,0.0,0.0,81,0.00,,,0.00,Wunderground v.1.15,2013-01-24 02:15:00,
2013-01-23 21:20:00,38.8,34.7,30.33,NNW,329,0.0,0.0,85,0.00,,,0.00,Wunderground v.1.15,2013-01-24 02:20:00,
2013-01-23 21:30:00,39.2,35.1,30.33,NNW,329,0.0,0.0,85,0.00,,,0.00,Wunderground v.1.15,2013-01-24 02:30:00,
2013-01-23 21:35:00,39.1,34.7,30.33,East,80,0.0,2.0,84,0.00,,,0.00,Wunderground v.1.15,2013-01-24 02:35:00,
2013-01-23 21:40:00,39.8,35.7,30.33,ENE,64,1.0,1.0,85,0.00,,,0.00,Wunderground v.1.15,2013-01-24 02:40:00,
2013-01-23 21:45:00,40.3,36.1,30.33,ENE,65,1.0,1.0,85,0.00,,,0.00,Wunderground v.1.15,2013-01-24 02:45:00,
2013-01-23 21:50:00,40.4,36.5,30.33,ENE,65,0.0,0.0,86,0.00,,,0.00,Wunderground v.1.15,2013-01-24 02:50:00,
2013-01-23 22:00:00,40.0,36.2,30.33,ENE,65,0.0,0.0,86,0.00,,,0.00,Wunderground v.1.15,2013-01-24 03:00:00,
2013-01-23 22:05:00,40.2,36.6,30.33,ENE,63,0.0,0.0,87,0.00,,,0.00,Wunderground v.1.15,2013-01-24 03:05:00,
2013-01-23 22:10:00,40.1,36.5,30.33,ENE,63,0.0,0.0,87,0.00,,,0.00,Wunderground v.1.15,2013-01-24 03:10:00,
2013-01-23 22:15:00,40.3,36.7,30.33,ENE,63,0.0,0.0,87,0.00,,,0.00,Wunderground v.1.15,2013-01-24 03:15:00,
2013-01-23 22:20:00,39.6,35.5,30.33,ENE,64,0.0,0.0,85,0.00,,,0.00,Wunderground v.1.15,2013-01-24 03:20:00,
2013-01-23 22:25:00,39.0,34.9,30.34,ENE,64,0.0,0.0,85,0.00,,,0.00,Wunderground v.1.15,2013-01-24 03:25:00,
2013-01-23 22:35:00,38.1,34.3,30.34,ENE,64,0.0,0.0,86,0.00,,,0.00,Wunderground v.1.15,2013-01-24 03:35:00,
2013-01-23 22:40:00,37.4,33.6,30.34,ENE,64,0.0,0.0,86,0.00,,,0.00,Wunderground v.1.15,2013-01-24 03:40:00,
2013-01-23 22:45:00,37.6,34.4,30.34,ENE,63,0.0,0.0,88,0.00,,,0.00,Wunderground v.1.15,2013-01-24 03:45:00,
2013-01-23 22:50:00,37.3,33.8,30.34,ENE,64,0.0,0.0,87,0.00,,,0.00,Wunderground v.1.15,2013-01-24 03:50:00,
2013-01-23 22:55:00,36.9,33.7,30.34,ENE,64,0.0,0.0,88,0.00,,,0.00,Wunderground v.1.15,2013-01-24 03:55:00,
2013-01-23 23:05:00,36.5,33.3,30.34,ENE,63,0.0,4.0,88,0.00,,,0.00,Wunderground v.1.15,2013-01-24 04:05:00,
2013-01-23 23:10:00,36.5,33.6,30.33,ENE,63,0.0,4.0,89,0.00,,,0.00,Wunderground v.1.15,2013-01-24 04:10:00,
2013-01-23 23:15:00,37.3,35.2,30.33,ENE,64,0.0,4.0,92,0.00,,,0.00,Wunderground v.1.15,2013-01-24 04:15:00,
2013-01-23 23:20:00,37.6,35.2,30.33,ENE,64,0.0,4.0,91,0.00,,,0.00,Wunderground v.1.15,2013-01-24 04:20:00,
2013-01-23 23:25:00,38.0,35.9,30.33,ENE,64,0.0,4.0,92,0.00,,,0.00,Wunderground v.1.15,2013-01-24 04:25:00,
2013-01-23 23:30:00,38.2,35.8,30.33,ENE,64,0.0,0.0,91,0.00,,,0.00,Wunderground v.1.15,2013-01-24 04:30:00,
2013-01-23 23:35:00,37.9,35.2,30.33,ENE,64,0.0,0.0,90,0.00,,,0.00,Wunderground v.1.15,2013-01-24 04:35:00,
2013-01-23 23:40:00,37.6,34.9,30.34,ENE,64,0.0,0.0,90,0.00,,,0.00,Wunderground v.1.15,2013-01-24 04:40:00,
2013-01-23 23:45:00,37.3,34.4,30.33,ENE,64,0.0,0.0,89,0.00,,,0.00,Wunderground v.1.15,2013-01-24 04:45:00,
2013-01-23 23:50:00,36.9,34.0,30.33,ENE,64,0.0,0.0,89,0.00,,,0.00,Wunderground v.1.15,2013-01-24 04:50:00,
2013-01-23 23:55:00,36.7,34.0,30.33,ENE,64,0.0,0.0,90,0.00,,,0.00,Wunderground v.1.15,2013-01-24 04:55:00,